Terminal Aerodrome Forecast
Issued by NWS Louisville, KY

Home | Current Version | Previous Version | Text Only | Print | Product List | Glossary On
Versions: 1 2 3 4 5 6 7 8 9 10 11 12
992
FTUS43 KLMK 200520
TAFLEX
TAF
KLEX 200520Z 2006/2106 22005KT P6SM SKC
     FM201400 19009KT P6SM SCT250=

USA.gov is the U.S. government's official web portal to all federal, state and local government web resources and services.